Time;durP1;ratioP1;P1;durP2;ratioP2;P2;SDS_P1;SDS_P2;PMS_P1;PMS_P2;Temp;Humidity;BMP_temperature;BMP_pressure;BME280_temperature;BME280_humidity;BME280_pressure;Samples;Min_cycle;Max_cycle;Signal;HPM_P1;HPM_P2
2023/01/30 00:00:53;;;;;;;53.92;30.05;;;7.10;74.00;;;;;;6249524;23;20027;-84
2023/01/30 00:03:19;;;;;;;50.95;28.90;;;6.90;74.40;;;;;;6249061;23;20011;-83
2023/01/30 00:05:45;;;;;;;47.72;27.63;;;6.80;74.70;;;;;;6248849;23;20374;-83
2023/01/30 00:11:48;;;;;;;40.53;25.73;;;6.80;74.50;;;;;;6245614;23;20086;-82
2023/01/30 00:15:09;;;;;;;44.72;25.80;;;6.90;74.60;;;;;;6221522;23;20050;-82
2023/01/30 00:17:45;;;;;;;47.13;27.15;;;6.80;74.50;;;;;;6220859;23;20016;-81
2023/01/30 00:20:21;;;;;;;48.85;29.38;;;6.80;74.30;;;;;;6248083;23;20430;-84
2023/01/30 00:22:58;;;;;;;42.60;27.42;;;6.80;74.20;;;;;;6221630;23;20008;-83
2023/01/30 00:25:25;;;;;;;41.60;25.42;;;6.50;75.10;;;;;;6219188;23;20154;-84
2023/01/30 00:27:50;;;;;;;49.30;28.50;;;6.50;74.60;;;;;;6248624;23;20000;-82
2023/01/30 00:30:16;;;;;;;42.67;25.55;;;6.50;74.50;;;;;;6247806;23;20014;-83
2023/01/30 00:32:42;;;;;;;49.95;28.65;;;6.60;74.50;;;;;;6221272;23;20008;-83
2023/01/30 00:35:08;;;;;;;48.58;28.75;;;6.60;74.50;;;;;;6221914;23;20159;-83
2023/01/30 00:37:33;;;;;;;44.53;28.17;;;6.70;74.30;;;;;;6248641;23;20000;-83
2023/01/30 00:39:59;;;;;;;44.75;27.60;;;6.70;74.10;;;;;;6248106;23;20036;-83
2023/01/30 00:48:10;;;;;;;43.85;27.52;;;6.70;73.70;;;;;;6239279;23;20091;-84
2023/01/30 00:50:42;;;;;;;46.85;29.05;;;6.70;73.70;;;;;;6246933;23;20031;-83
2023/01/30 00:53:12;;;;;;;45.08;28.23;;;6.70;73.70;;;;;;6246856;22;20016;-84
2023/01/30 00:55:38;;;;;;;43.00;28.00;;;6.60;73.50;;;;;;6247451;23;20000;-83
2023/01/30 00:58:04;;;;;;;46.28;27.92;;;6.60;73.60;;;;;;6220466;23;20000;-84
2023/01/30 01:00:30;;;;;;;47.03;28.38;;;6.50;73.80;;;;;;6247289;23;19996;-84
2023/01/30 01:02:56;;;;;;;45.60;27.80;;;6.50;74.10;;;;;;6220323;23;20315;-84
2023/01/30 01:05:22;;;;;;;43.55;26.13;;;6.50;74.10;;;;;;6246931;23;20031;-84
2023/01/30 01:07:47;;;;;;;40.85;25.55;;;6.40;74.30;;;;;;6219949;23;20316;-84
2023/01/30 01:10:15;;;;;;;46.67;29.00;;;6.30;74.30;;;;;;6247204;23;20300;-85
2023/01/30 01:12:44;;;;;;;43.45;27.52;;;6.30;74.10;;;;;;6246963;23;20004;-84
2023/01/30 01:15:11;;;;;;;41.00;26.47;;;6.30;74.30;;;;;;6246920;23;19997;-84
2023/01/30 01:17:37;;;;;;;45.20;29.35;;;6.30;74.50;;;;;;6246878;23;20229;-84
2023/01/30 01:20:04;;;;;;;57.35;34.03;;;6.30;74.50;;;;;;6246265;23;19996;-84
2023/01/30 01:22:30;;;;;;;50.65;29.70;;;5.90;75.40;;;;;;6247180;23;20358;-84
2023/01/30 01:24:55;;;;;;;49.22;29.58;;;5.70;76.50;;;;;;6247195;23;20007;-84
2023/01/30 01:27:21;;;;;;;54.17;31.30;;;5.80;75.60;;;;;;6247031;23;20329;-84
2023/01/30 01:29:47;;;;;;;53.92;30.42;;;5.70;76.00;;;;;;6246816;23;20077;-84
2023/01/30 01:32:13;;;;;;;49.80;29.95;;;5.80;75.70;;;;;;6246893;23;20004;-83
2023/01/30 01:34:38;;;;;;;55.63;33.13;;;5.70;76.10;;;;;;6246775;23;20130;-83
2023/01/30 01:37:04;;;;;;;45.83;28.85;;;5.60;76.70;;;;;;6246910;23;20019;-83
2023/01/30 01:41:00;;;;;;;50.28;29.17;;;5.50;76.60;;;;;;6246512;23;20000;-83
2023/01/30 01:42:16;;;;;;;58.25;32.17;;;5.50;76.60;;;;;;6246525;23;20012;-84
2023/01/30 01:45:10;;;;;;;53.10;30.45;;;5.50;76.00;;;;;;6246849;23;20054;-84
2023/01/30 01:47:39;;;;;;;51.03;31.48;;;5.60;76.40;;;;;;6246782;23;20004;-84
2023/01/30 01:50:15;;;;;;;53.53;30.65;;;5.60;76.00;;;;;;6246953;23;20422;-85
2023/01/30 01:52:41;;;;;;;48.45;30.20;;;5.60;76.10;;;;;;6245600;22;20035;-84
2023/01/30 01:55:07;;;;;;;51.35;29.83;;;5.70;76.10;;;;;;6219575;23;20015;-85
2023/01/30 01:57:47;;;;;;;50.50;29.95;;;5.70;76.00;;;;;;6246362;23;20000;-83
2023/01/30 02:00:15;;;;;;;50.53;29.02;;;5.80;76.00;;;;;;6246781;23;20497;-85
2023/01/30 02:02:45;;;;;;;55.63;33.35;;;5.90;75.80;;;;;;6246093;23;20007;-85
2023/01/30 02:05:13;;;;;;;59.28;34.75;;;5.60;75.90;;;;;;6246532;23;20031;-85
2023/01/30 02:07:45;;;;;;;51.63;31.20;;;5.40;77.10;;;;;;6246273;23;20434;-84
2023/01/30 02:10:19;;;;;;;56.17;34.15;;;5.10;78.10;;;;;;6246297;23;20084;-85
2023/01/30 02:12:46;;;;;;;48.35;28.55;;;5.00;78.50;;;;;;6246473;23;20004;-84
2023/01/30 02:15:12;;;;;;;46.97;27.23;;;5.10;77.90;;;;;;6246569;23;20041;-84
2023/01/30 02:17:38;;;;;;;50.33;27.75;;;5.20;77.10;;;;;;6246194;23;20000;-84
2023/01/30 02:20:09;;;;;;;46.03;26.95;;;5.40;76.90;;;;;;6246277;23;20298;-84
2023/01/30 02:22:44;;;;;;;44.08;26.38;;;5.50;76.50;;;;;;6246383;23;20007;-84
2023/01/30 02:25:40;;;;;;;46.70;26.80;;;5.60;76.20;;;;;;6246675;23;20000;-84
2023/01/30 02:28:30;;;;;;;42.95;26.65;;;5.70;75.70;;;;;;6246392;23;20006;-86
2023/01/30 02:31:27;;;;;;;45.83;26.25;;;5.80;75.40;;;;;;6245818;23;20000;-82
2023/01/30 02:34:02;;;;;;;42.53;25.00;;;5.80;75.20;;;;;;6218979;23;20008;-83
2023/01/30 02:36:37;;;;;;;42.65;25.15;;;5.80;74.80;;;;;;6239046;23;20038;-82
2023/01/30 02:39:27;;;;;;;40.33;23.92;;;5.90;74.60;;;;;;6246277;23;20307;-82
2023/01/30 02:41:59;;;;;;;42.53;25.90;;;5.90;74.20;;;;;;6245819;23;20461;-83
2023/01/30 02:44:50;;;;;;;43.53;26.45;;;5.80;74.20;;;;;;6246064;23;20000;-82
2023/01/30 02:47:37;;;;;;;40.90;25.67;;;5.80;74.50;;;;;;6246423;23;20000;-83
2023/01/30 02:50:11;;;;;;;47.70;26.85;;;5.80;74.60;;;;;;6246071;23;20456;-83
2023/01/30 02:52:39;;;;;;;44.00;26.73;;;5.90;74.60;;;;;;6245370;23;20319;-84
2023/01/30 02:55:27;;;;;;;43.72;26.25;;;5.90;74.40;;;;;;6246079;23;19996;-83
2023/01/30 02:57:54;;;;;;;40.50;23.67;;;5.90;74.20;;;;;;6245768;23;20434;-84
2023/01/30 03:00:53;;;;;;;42.92;25.55;;;5.90;74.10;;;;;;6245667;23;20000;-83
2023/01/30 03:03:27;;;;;;;41.75;24.77;;;5.90;74.10;;;;;;6245821;23;20000;-84
2023/01/30 03:06:05;;;;;;;41.22;24.58;;;5.90;74.10;;;;;;6245167;23;20000;-83
2023/01/30 03:08:58;;;;;;;39.00;23.70;;;5.90;74.00;;;;;;6219004;23;20058;-83
2023/01/30 03:11:33;;;;;;;39.95;23.70;;;5.90;74.00;;;;;;6245746;23;20000;-83
2023/01/30 03:14:11;;;;;;;36.78;22.65;;;6.00;74.10;;;;;;6245503;23;20394;-83
2023/01/30 03:16:38;;;;;;;37.42;23.08;;;6.00;74.20;;;;;;6246192;23;20083;-86
2023/01/30 03:19:09;;;;;;;40.75;24.80;;;6.00;74.00;;;;;;6246692;23;19996;-84
2023/01/30 03:21:38;;;;;;;;;;;6.00;73.80;;;;;;6246843;23;20034;-85
2023/01/30 03:24:05;;;;;;;41.20;23.10;;;5.90;73.70;;;;;;6245754;23;19899;-85
2023/01/30 03:26:34;;;;;;;39.50;23.55;;;5.80;73.90;;;;;;6245862;23;20426;-84
2023/01/30 03:29:01;;;;;;;42.50;25.45;;;5.70;74.00;;;;;;6245590;23;20076;-84
2023/01/30 03:31:26;;;;;;;40.15;24.20;;;5.70;74.20;;;;;;6246004;23;20348;-85
2023/01/30 03:33:52;;;;;;;36.80;23.88;;;5.70;74.40;;;;;;6245848;23;20003;-85
2023/01/30 03:36:18;;;;;;;36.00;21.17;;;5.70;74.50;;;;;;6246251;23;20008;-85
2023/01/30 03:38:44;;;;;;;37.08;22.63;;;5.70;74.60;;;;;;6245564;23;20003;-84
2023/01/30 03:41:09;;;;;;;30.48;20.23;;;5.70;74.40;;;;;;6245693;23;20026;-85
2023/01/30 03:43:35;;;;;;;30.63;20.60;;;5.80;74.20;;;;;;6245914;23;20331;-84
2023/01/30 03:46:01;;;;;;;32.67;19.90;;;5.80;73.80;;;;;;6245670;23;20004;-84
2023/01/30 03:48:27;;;;;;;35.05;22.23;;;5.80;73.60;;;;;;6245372;23;20000;-84
2023/01/30 03:50:53;;;;;;;29.42;18.80;;;5.80;73.50;;;;;;6245443;23;20011;-84
2023/01/30 03:53:18;;;;;;;30.85;18.80;;;5.80;73.30;;;;;;6245483;23;20075;-84
2023/01/30 03:55:44;;;;;;;28.73;17.83;;;5.80;72.90;;;;;;6218745;23;20030;-84
2023/01/30 03:58:10;;;;;;;32.45;18.08;;;5.80;72.50;;;;;;6245367;23;20487;-84
2023/01/30 04:00:36;;;;;;;28.45;17.77;;;5.80;72.90;;;;;;6245619;23;20004;-84
2023/01/30 04:03:01;;;;;;;28.38;17.23;;;5.80;72.40;;;;;;6245849;23;20020;-84
2023/01/30 04:05:27;;;;;;;29.60;18.95;;;5.80;72.30;;;;;;6245899;23;19997;-86
2023/01/30 04:07:56;;;;;;;29.45;18.33;;;5.80;72.20;;;;;;6245390;23;20000;-86
2023/01/30 04:10:22;;;;;;;30.48;18.33;;;5.80;72.10;;;;;;6246052;23;20007;-85
2023/01/30 04:12:48;;;;;;;34.97;19.45;;;5.90;71.90;;;;;;6245492;23;20007;-83
2023/01/30 04:15:14;;;;;;;28.17;16.85;;;5.80;71.50;;;;;;6245645;23;20007;-81
2023/01/30 04:17:41;;;;;;;30.00;18.30;;;5.80;71.40;;;;;;6245414;23;20000;-82
2023/01/30 04:20:08;;;;;;;34.63;20.92;;;5.80;71.30;;;;;;6245016;23;20410;-83
2023/01/30 04:22:34;;;;;;;32.15;20.20;;;5.70;71.90;;;;;;6247298;23;20499;-83
2023/01/30 04:24:59;;;;;;;31.23;19.20;;;5.60;72.10;;;;;;6247420;23;20000;-84
2023/01/30 04:27:25;;;;;;;28.95;18.75;;;5.50;72.40;;;;;;6246629;23;20004;-83
2023/01/30 04:29:50;;;;;;;33.10;19.33;;;5.40;73.30;;;;;;6246923;23;20051;-84
2023/01/30 04:32:16;;;;;;;32.50;21.05;;;5.30;73.20;;;;;;6247434;23;20004;-84
2023/01/30 04:34:43;;;;;;;36.78;21.95;;;5.30;73.40;;;;;;6247360;23;20381;-85
2023/01/30 04:37:10;;;;;;;28.33;18.25;;;5.30;73.60;;;;;;6220225;23;20014;-83
2023/01/30 04:39:35;;;;;;;31.77;20.92;;;5.30;73.80;;;;;;6246471;23;20000;-83
2023/01/30 04:42:01;;;;;;;33.40;21.30;;;5.30;74.00;;;;;;6246786;23;20445;-83
2023/01/30 04:44:27;;;;;;;33.00;20.60;;;5.30;74.10;;;;;;6247598;23;20008;-83
2023/01/30 04:46:53;;;;;;;29.95;19.40;;;5.30;74.20;;;;;;6247204;23;20000;-83
2023/01/30 04:49:19;;;;;;;35.17;20.70;;;5.20;74.10;;;;;;6247144;23;20008;-83
2023/01/30 04:51:44;;;;;;;34.28;20.92;;;5.20;74.30;;;;;;6246256;22;20067;-83
2023/01/30 04:54:10;;;;;;;31.15;19.67;;;5.20;74.40;;;;;;6220181;23;20004;-82
2023/01/30 04:56:36;;;;;;;30.25;19.05;;;5.00;74.40;;;;;;6245959;23;20000;-82
2023/01/30 04:59:02;;;;;;;29.17;19.17;;;5.00;74.90;;;;;;6219435;23;20095;-82
2023/01/30 05:01:34;;;;;;;30.70;18.83;;;5.00;74.40;;;;;;6246376;23;20008;-82
2023/01/30 05:04:01;;;;;;;34.42;20.30;;;5.00;74.60;;;;;;6246560;23;20034;-83
2023/01/30 05:06:27;;;;;;;39.30;22.38;;;4.90;74.80;;;;;;6246732;23;20008;-83
2023/01/30 05:08:54;;;;;;;31.95;19.45;;;4.90;74.80;;;;;;6219943;23;20457;-84
2023/01/30 05:11:20;;;;;;;35.67;21.13;;;4.90;74.70;;;;;;6219852;23;20339;-84
2023/01/30 05:13:46;;;;;;;40.15;22.38;;;4.70;75.60;;;;;;6246797;23;20027;-83
2023/01/30 05:16:14;;;;;;;32.22;18.77;;;4.50;76.40;;;;;;6246861;23;20004;-83
2023/01/30 05:18:40;;;;;;;32.15;19.45;;;4.60;75.50;;;;;;6246929;23;20061;-83
2023/01/30 05:21:10;;;;;;;38.28;22.45;;;4.60;75.60;;;;;;6246648;23;20426;-83
2023/01/30 05:23:36;;;;;;;30.65;19.27;;;4.60;75.70;;;;;;6247301;23;20004;-84
2023/01/30 05:26:03;;;;;;;36.83;20.52;;;4.70;75.60;;;;;;6246683;23;20083;-83
2023/01/30 05:28:29;;;;;;;30.55;19.48;;;4.70;75.50;;;;;;6246490;23;20008;-83
2023/01/30 05:31:10;;;;;;;32.33;19.38;;;4.80;75.50;;;;;;6245463;23;20004;-83
2023/01/30 05:33:36;;;;;;;29.00;17.23;;;4.80;75.40;;;;;;6219947;23;20051;-85
2023/01/30 05:36:02;;;;;;;31.25;18.27;;;4.80;75.20;;;;;;6247055;23;20042;-85
2023/01/30 05:38:28;;;;;;;31.35;19.05;;;4.70;75.10;;;;;;6220298;23;20035;-86
2023/01/30 05:41:06;;;;;;;27.92;17.33;;;4.70;75.30;;;;;;6246968;23;20423;-84
2023/01/30 05:43:33;;;;;;;30.13;17.58;;;4.70;75.10;;;;;;6246195;23;20007;-83
2023/01/30 05:46:01;;;;;;;32.42;18.33;;;4.70;75.30;;;;;;6245996;23;20418;-84
2023/01/30 05:48:27;;;;;;;28.20;17.45;;;4.80;75.50;;;;;;6246614;23;20000;-83
2023/01/30 05:50:55;;;;;;;27.70;17.02;;;4.90;75.20;;;;;;6245978;23;20414;-84
2023/01/30 05:53:22;;;;;;;26.13;16.70;;;4.90;75.10;;;;;;6246094;22;20012;-84
2023/01/30 05:55:58;;;;;;;30.27;17.23;;;5.00;75.00;;;;;;6246247;23;20004;-83
2023/01/30 05:58:25;;;;;;;25.38;15.40;;;5.00;74.50;;;;;;6246562;23;19996;-82
2023/01/30 06:01:01;;;;;;;25.83;16.08;;;5.00;74.20;;;;;;6245320;23;20004;-83
2023/01/30 06:03:27;;;;;;;25.48;15.40;;;5.00;74.20;;;;;;6245331;23;20012;-84
2023/01/30 06:05:52;;;;;;;25.10;16.50;;;5.00;74.20;;;;;;6247429;23;20000;-89
2023/01/30 06:08:18;;;;;;;22.67;15.05;;;5.00;74.10;;;;;;6248181;23;20031;-87
2023/01/30 06:10:44;;;;;;;28.20;16.50;;;4.90;74.10;;;;;;6246385;23;20004;-88
2023/01/30 06:13:10;;;;;;;26.67;16.00;;;5.00;74.30;;;;;;6247511;23;19996;-89
2023/01/30 06:15:36;;;;;;;25.70;15.98;;;5.00;74.30;;;;;;6246829;23;20000;-87
2023/01/30 06:18:01;;;;;;;27.05;15.85;;;5.00;74.30;;;;;;6246461;23;19996;-85
2023/01/30 06:20:27;;;;;;;26.35;15.85;;;5.10;74.30;;;;;;6246413;23;20026;-86
2023/01/30 06:22:53;;;;;;;26.80;15.88;;;5.10;74.10;;;;;;6219380;23;20012;-86
2023/01/30 06:25:18;;;;;;;26.20;15.05;;;5.10;73.70;;;;;;6218088;23;20095;-82
2023/01/30 06:27:47;;;;;;;24.52;15.27;;;5.10;73.60;;;;;;6245265;23;19996;-82
2023/01/30 06:30:13;;;;;;;23.92;14.20;;;5.20;73.60;;;;;;6244580;23;20119;-81
2023/01/30 06:32:39;;;;;;;26.17;14.43;;;5.20;73.30;;;;;;6246038;23;20434;-88
2023/01/30 06:35:05;;;;;;;21.98;14.27;;;5.20;73.20;;;;;;6220318;23;20412;-84
2023/01/30 06:37:30;;;;;;;25.17;14.85;;;5.20;73.00;;;;;;6219137;23;20075;-84
2023/01/30 06:39:56;;;;;;;23.05;14.32;;;5.20;72.90;;;;;;6218431;23;20339;-82
2023/01/30 06:42:21;;;;;;;23.92;14.23;;;5.30;73.00;;;;;;6215351;23;20063;-81
2023/01/30 06:44:47;;;;;;;23.98;14.23;;;5.30;73.00;;;;;;6244176;23;20004;-82
2023/01/30 06:47:13;;;;;;;25.23;15.00;;;5.30;73.00;;;;;;6243851;23;20000;-86
2023/01/30 06:49:38;;;;;;;23.45;14.57;;;5.30;72.90;;;;;;6218379;23;20046;-83
2023/01/30 06:52:04;;;;;;;20.98;12.90;;;5.40;73.00;;;;;;6243948;23;20012;-83
2023/01/30 06:54:30;;;;;;;24.52;14.25;;;5.40;72.90;;;;;;6245364;23;20075;-85
2023/01/30 06:56:56;;;;;;;24.92;14.60;;;5.40;72.90;;;;;;6245798;23;20446;-85
2023/01/30 06:59:22;;;;;;;25.42;14.23;;;5.50;72.60;;;;;;6245292;23;20150;-84
2023/01/30 07:01:47;;;;;;;21.15;13.50;;;5.50;72.20;;;;;;6244779;23;20004;-87
2023/01/30 07:04:13;;;;;;;20.75;13.15;;;5.50;72.00;;;;;;6245730;23;20015;-82
2023/01/30 07:06:39;;;;;;;23.75;13.68;;;5.50;72.00;;;;;;6217650;23;20311;-82
2023/01/30 07:09:04;;;;;;;21.25;13.75;;;5.50;71.80;;;;;;6245508;23;20439;-82
2023/01/30 07:11:30;;;;;;;22.50;14.02;;;5.50;71.80;;;;;;6243888;23;20330;-85
2023/01/30 07:13:59;;;;;;;25.10;14.23;;;5.50;71.90;;;;;;6245558;23;19996;-85
2023/01/30 07:16:28;;;;;;;20.75;12.65;;;5.60;72.10;;;;;;6245379;23;19996;-82
2023/01/30 07:18:57;;;;;;;20.67;12.93;;;5.60;72.00;;;;;;6218800;23;20015;-86
2023/01/30 07:21:26;;;;;;;19.98;12.70;;;5.60;71.80;;;;;;6244630;23;20031;-83
2023/01/30 07:23:52;;;;;;;21.05;13.00;;;5.50;71.70;;;;;;6244052;23;20331;-83
2023/01/30 07:26:18;;;;;;;22.98;13.18;;;5.50;71.70;;;;;;6245333;23;20075;-83
2023/01/30 07:28:44;;;;;;;21.35;13.25;;;5.60;71.90;;;;;;6245089;23;20024;-83
2023/01/30 07:31:10;;;;;;;24.10;13.80;;;5.60;72.00;;;;;;6244733;23;20000;-83
2023/01/30 07:33:35;;;;;;;22.30;13.50;;;5.60;71.80;;;;;;6218713;23;20050;-83
2023/01/30 07:36:01;;;;;;;23.00;12.48;;;5.60;71.70;;;;;;6244997;23;20319;-83
2023/01/30 07:38:27;;;;;;;24.20;13.60;;;5.60;71.50;;;;;;6245051;23;20019;-82
2023/01/30 07:40:52;;;;;;;23.85;14.10;;;5.70;71.40;;;;;;6244044;23;20000;-83
2023/01/30 07:43:18;;;;;;;25.33;15.82;;;5.70;71.50;;;;;;6218300;23;20377;-83
2023/01/30 07:45:47;;;;;;;24.20;13.93;;;5.70;71.10;;;;;;6245554;23;20004;-83
2023/01/30 07:48:15;;;;;;;23.10;15.18;;;5.70;71.10;;;;;;6217865;23;20020;-82
2023/01/30 07:50:42;;;;;;;21.13;14.02;;;5.70;71.40;;;;;;6218233;23;20008;-82
2023/01/30 07:53:10;;;;;;;23.90;15.35;;;5.70;71.60;;;;;;6245591;23;20026;-83
2023/01/30 07:55:36;;;;;;;22.95;15.13;;;5.70;71.70;;;;;;6247825;23;19996;-83
2023/01/30 07:58:03;;;;;;;25.67;14.73;;;5.80;71.50;;;;;;6220165;23;20009;-83
2023/01/30 08:00:29;;;;;;;21.70;13.70;;;5.80;71.40;;;;;;6247094;23;20491;-83
2023/01/30 08:02:54;;;;;;;32.55;15.77;;;5.80;71.50;;;;;;6247265;23;20008;-83
2023/01/30 08:05:20;;;;;;;24.65;15.20;;;5.80;71.80;;;;;;6246452;23;20330;-83
2023/01/30 08:07:48;;;;;;;26.15;14.23;;;5.80;71.70;;;;;;6246177;23;20000;-83
2023/01/30 08:10:14;;;;;;;26.20;15.32;;;5.80;71.60;;;;;;6245794;23;20426;-83
2023/01/30 08:12:40;;;;;;;22.65;13.88;;;5.80;72.20;;;;;;6246900;23;20024;-83
2023/01/30 08:15:09;;;;;;;25.55;16.17;;;5.90;71.70;;;;;;6247230;23;20503;-83
2023/01/30 08:17:35;;;;;;;23.80;15.20;;;5.90;71.50;;;;;;6247404;23;20027;-83
2023/01/30 08:20:01;;;;;;;22.52;14.38;;;6.00;71.60;;;;;;6219747;23;20008;-83
2023/01/30 08:22:27;;;;;;;23.55;14.45;;;6.00;71.50;;;;;;6246973;23;20001;-83
2023/01/30 08:24:53;;;;;;;25.13;15.48;;;6.00;71.60;;;;;;6220010;23;20453;-83
2023/01/30 08:27:19;;;;;;;26.38;15.63;;;6.00;71.60;;;;;;6220611;23;20012;-83
2023/01/30 08:29:44;;;;;;;24.00;13.55;;;5.90;71.70;;;;;;6219966;23;20040;-84
2023/01/30 08:32:10;;;;;;;22.98;15.18;;;5.90;71.90;;;;;;6247536;23;20028;-82
2023/01/30 08:34:36;;;;;;;21.88;14.75;;;5.90;72.10;;;;;;6219037;23;20820;-83
2023/01/30 08:37:02;;;;;;;29.27;17.40;;;6.00;72.20;;;;;;6220530;23;20024;-83
2023/01/30 08:39:28;;;;;;;22.60;15.10;;;6.00;72.00;;;;;;6219757;23;20031;-83
2023/01/30 08:41:53;;;;;;;22.55;15.10;;;6.10;72.40;;;;;;6219690;23;20008;-82
2023/01/30 08:44:19;;;;;;;22.20;14.85;;;6.20;72.30;;;;;;6247340;23;20000;-83
2023/01/30 08:46:45;;;;;;;24.00;16.70;;;6.40;72.10;;;;;;6246832;23;20444;-82
2023/01/30 08:49:11;;;;;;;23.83;15.38;;;6.50;71.80;;;;;;6247450;23;20414;-82
2023/01/30 08:51:37;;;;;;;28.83;16.48;;;6.60;71.70;;;;;;6244967;22;20016;-82
2023/01/30 08:54:06;;;;;;;28.95;17.38;;;6.70;71.30;;;;;;6247121;23;19996;-82
2023/01/30 08:56:32;;;;;;;27.67;17.65;;;6.80;70.80;;;;;;6245924;23;19996;-82
2023/01/30 08:58:57;;;;;;;27.95;18.55;;;6.80;70.40;;;;;;6246089;23;20000;-82
2023/01/30 09:01:23;;;;;;;25.63;17.23;;;6.90;70.30;;;;;;6246018;23;19992;-82
2023/01/30 09:03:49;;;;;;;26.98;16.90;;;6.90;70.40;;;;;;6246645;23;20034;-82
2023/01/30 09:06:15;;;;;;;36.22;18.20;;;6.80;70.40;;;;;;6219139;23;20455;-82
2023/01/30 09:08:40;;;;;;;29.00;19.10;;;6.80;70.50;;;;;;6247330;23;20398;-82
2023/01/30 09:11:07;;;;;;;27.25;17.80;;;6.90;70.70;;;;;;6219358;23;20300;-81
2023/01/30 09:13:34;;;;;;;33.75;17.63;;;6.80;70.90;;;;;;6247452;23;20001;-82
2023/01/30 09:15:59;;;;;;;31.50;17.92;;;6.80;71.20;;;;;;6246515;23;20031;-82
2023/01/30 09:18:25;;;;;;;31.05;17.63;;;6.60;71.80;;;;;;6246809;23;19997;-82
2023/01/30 09:20:51;;;;;;;28.50;19.05;;;6.60;71.90;;;;;;6245210;23;20300;-82
2023/01/30 09:23:17;;;;;;;32.40;19.05;;;6.50;72.30;;;;;;6245420;23;19997;-82
2023/01/30 09:25:46;;;;;;;32.78;19.80;;;6.40;73.10;;;;;;6217856;23;20488;-82
2023/01/30 09:28:12;;;;;;;29.00;18.27;;;6.20;74.00;;;;;;6245362;23;20371;-84
2023/01/30 09:30:38;;;;;;;31.65;20.05;;;6.20;73.60;;;;;;6218873;23;20381;-84
2023/01/30 09:33:04;;;;;;;30.88;19.17;;;6.20;74.00;;;;;;6245880;23;20000;-84
2023/01/30 09:35:30;;;;;;;28.55;17.13;;;6.30;74.00;;;;;;6246903;23;20387;-84
2023/01/30 09:37:55;;;;;;;30.00;18.23;;;6.40;73.80;;;;;;6246426;23;20303;-81
2023/01/30 09:40:28;;;;;;;27.73;18.88;;;6.50;73.90;;;;;;6245671;23;19996;-83
2023/01/30 09:43:18;;;;;;;32.47;19.42;;;6.50;73.50;;;;;;6245880;23;20008;-83
2023/01/30 09:46:13;;;;;;;27.50;18.15;;;6.60;74.40;;;;;;6245608;23;20015;-82
2023/01/30 09:49:17;;;;;;;33.08;20.27;;;6.70;73.50;;;;;;6233627;23;20008;-83
2023/01/30 09:52:02;;;;;;;27.95;19.23;;;6.80;73.30;;;;;;6166080;23;20016;-83
2023/01/30 09:54:35;;;;;;;30.92;19.88;;;6.90;72.80;;;;;;6243380;23;20003;-83
2023/01/30 09:57:21;;;;;;;28.58;19.50;;;6.80;72.50;;;;;;6246643;22;20051;-83
2023/01/30 10:00:16;;;;;;;36.70;21.55;;;6.90;72.90;;;;;;6245504;22;20314;-83
2023/01/30 10:03:00;;;;;;;29.15;18.48;;;7.00;72.60;;;;;;6244003;23;20331;-84
2023/01/30 10:05:35;;;;;;;34.67;20.35;;;7.20;72.60;;;;;;6243752;23;20477;-82
2023/01/30 10:08:19;;;;;;;30.23;20.25;;;7.40;71.80;;;;;;6243063;23;20090;-87
2023/01/30 10:11:03;;;;;;;33.40;20.13;;;7.70;72.10;;;;;;6244980;22;20061;-82
2023/01/30 10:13:56;;;;;;;36.90;20.63;;;8.10;72.10;;;;;;6241826;23;20023;-82
2023/01/30 10:16:29;;;;;;;35.42;23.58;;;8.40;70.70;;;;;;6245526;23;19999;-82
2023/01/30 10:19:03;;;;;;;37.10;23.92;;;8.60;68.60;;;;;;6244667;23;20131;-84
2023/01/30 10:21:29;;;;;;;34.33;21.83;;;8.60;68.50;;;;;;6244670;23;20020;-85
2023/01/30 10:24:00;;;;;;;43.72;24.52;;;8.50;69.20;;;;;;6245240;23;20450;-84
2023/01/30 10:26:29;;;;;;;45.45;28.77;;;8.60;68.90;;;;;;6245438;22;20026;-83
2023/01/30 10:29:09;;;;;;;35.40;23.55;;;8.70;67.90;;;;;;6246266;22;20035;-84
2023/01/30 10:31:59;;;;;;;41.08;25.27;;;8.50;68.70;;;;;;6246137;23;20004;-84
2023/01/30 10:34:31;;;;;;;33.10;22.10;;;8.70;69.20;;;;;;6245547;22;20038;-84
2023/01/30 10:37:09;;;;;;;33.40;23.05;;;8.90;68.80;;;;;;6244115;23;20004;-84
2023/01/30 10:39:51;;;;;;;36.25;23.98;;;9.10;68.50;;;;;;6244088;23;20046;-84
2023/01/30 10:42:28;;;;;;;38.58;24.52;;;9.40;68.50;;;;;;6244014;23;20004;-84
2023/01/30 10:45:05;;;;;;;51.20;30.38;;;9.40;66.60;;;;;;6245208;22;20000;-83
2023/01/30 10:47:46;;;;;;;37.22;24.10;;;9.30;65.50;;;;;;6245554;22;20079;-87
2023/01/30 10:50:15;;;;;;;34.35;22.42;;;9.10;67.10;;;;;;6245680;23;20087;-85
2023/01/30 10:52:47;;;;;;;32.67;22.95;;;9.10;67.50;;;;;;6245942;22;20035;-89
2023/01/30 10:55:28;;;;;;;34.33;21.83;;;9.30;67.00;;;;;;6246710;23;20000;-90
2023/01/30 10:58:12;;;;;;;33.42;21.05;;;9.20;66.90;;;;;;6219329;23;20489;-89
2023/01/30 11:00:56;;;;;;;29.63;20.58;;;9.10;67.00;;;;;;6248187;23;20330;-90
2023/01/30 11:03:28;;;;;;;32.38;20.73;;;9.10;67.30;;;;;;6220277;23;20004;-88
2023/01/30 11:06:17;;;;;;;32.92;22.48;;;9.20;67.00;;;;;;6219578;23;20004;-87
2023/01/30 11:08:42;;;;;;;28.60;18.70;;;9.20;66.80;;;;;;6244919;23;20087;-88
2023/01/30 11:11:39;;;;;;;31.20;21.73;;;9.30;66.70;;;;;;6246200;23;20035;-89
2023/01/30 11:14:07;;;;;;;29.50;19.17;;;9.20;66.30;;;;;;6245795;23;20007;-84
2023/01/30 11:16:42;;;;;;;33.88;21.70;;;9.20;66.60;;;;;;6218902;23;20000;-85
2023/01/30 11:19:09;;;;;;;27.33;18.42;;;9.20;66.60;;;;;;6245792;23;20003;-85
2023/01/30 11:21:35;;;;;;;29.60;20.20;;;9.30;67.00;;;;;;6245443;23;20004;-85
2023/01/30 11:24:15;;;;;;;29.27;19.67;;;9.40;67.10;;;;;;6245172;23;20503;-86
2023/01/30 11:26:42;;;;;;;29.08;19.27;;;9.60;67.20;;;;;;6218883;23;20012;-84
2023/01/30 11:29:24;;;;;;;26.85;19.55;;;10.00;67.10;;;;;;6218807;23;20494;-85
2023/01/30 11:31:51;;;;;;;38.10;22.88;;;10.40;66.20;;;;;;6245101;23;20530;-85
2023/01/30 11:34:19;;;;;;;34.95;23.90;;;10.60;63.90;;;;;;6245523;23;20007;-85
2023/01/30 11:36:46;;;;;;;40.72;26.52;;;10.80;63.70;;;;;;6245639;23;19996;-88
2023/01/30 11:39:11;;;;;;;31.27;20.63;;;10.70;61.90;;;;;;6244442;23;20003;-86
2023/01/30 11:41:42;;;;;;;30.67;20.52;;;10.60;62.20;;;;;;6246347;23;20028;-86
2023/01/30 11:44:08;;;;;;;;;;;10.50;63.90;;;;;;6219989;23;20015;-86
2023/01/30 11:46:37;;;;;;;31.15;21.63;;;10.60;64.10;;;;;;6246227;23;19986;-86
2023/01/30 11:49:13;;;;;;;32.45;21.73;;;10.80;64.20;;;;;;6219690;23;20011;-86
2023/01/30 11:51:42;;;;;;;33.78;23.52;;;11.00;62.70;;;;;;6221902;23;20081;-86
2023/01/30 11:54:17;;;;;;;28.92;20.98;;;11.30;62.40;;;;;;6245960;23;20004;-86
2023/01/30 11:56:55;;;;;;;34.78;22.60;;;11.50;61.80;;;;;;6246537;22;20075;-86
2023/01/30 11:59:35;;;;;;;29.92;21.35;;;12.10;59.40;;;;;;6245739;22;20305;-86
2023/01/30 12:02:20;;;;;;;;;;;13.20;61.40;;;;;;6246235;22;20121;-86
2023/01/30 12:04:50;;;;;;;30.42;21.40;;;14.10;58.10;;;;;;6245272;22;19899;-86
2023/01/30 12:07:22;;;;;;;33.10;22.48;;;15.30;55.90;;;;;;6245573;22;20050;-83
2023/01/30 12:09:49;;;;;;;28.63;21.50;;;16.30;53.30;;;;;;6244861;22;20498;-84
2023/01/30 12:12:34;;;;;;;29.67;22.88;;;17.20;50.90;;;;;;6245449;22;20050;-83
2023/01/30 12:15:33;;;;;;;34.97;22.33;;;17.80;48.70;;;;;;6244997;22;20001;-83
2023/01/30 12:18:24;;;;;;;28.77;22.83;;;18.50;47.20;;;;;;6236677;23;20008;-83
2023/01/30 12:20:54;;;;;;;28.23;21.60;;;19.10;45.40;;;;;;6244736;23;20059;-83
2023/01/30 12:24:10;;;;;;;27.88;22.80;;;19.50;44.80;;;;;;6243795;23;20083;-85
2023/01/30 12:26:46;;;;;;;29.80;22.58;;;19.70;42.30;;;;;;6214330;23;20011;-85
2023/01/30 12:29:32;;;;;;;31.45;24.15;;;19.30;42.90;;;;;;6246382;22;20007;-85
2023/01/30 12:32:14;;;;;;;37.33;24.13;;;19.20;42.40;;;;;;6244387;23;20035;-86
2023/01/30 12:34:44;;;;;;;28.75;22.05;;;19.10;42.80;;;;;;6245338;22;20004;-86
2023/01/30 12:37:31;;;;;;;25.20;21.25;;;19.20;44.20;;;;;;6245591;22;20004;-86
2023/01/30 12:40:15;;;;;;;30.15;22.80;;;19.30;43.70;;;;;;6245835;23;20024;-86
2023/01/30 12:43:07;;;;;;;30.45;22.50;;;18.80;42.20;;;;;;6245128;23;20019;-86
2023/01/30 12:46:02;;;;;;;30.52;22.60;;;18.40;43.40;;;;;;6246372;23;20020;-84
2023/01/30 12:48:49;;;;;;;26.50;21.15;;;18.30;44.30;;;;;;6244629;23;20449;-86
2023/01/30 12:51:39;;;;;;;28.40;21.63;;;18.10;44.60;;;;;;6246581;22;20088;-86
2023/01/30 12:54:05;;;;;;;;;;;18.00;45.10;;;;;;6219052;23;20016;-86
2023/01/30 12:56:47;;;;;;;28.67;22.05;;;18.10;45.10;;;;;;6220886;23;19903;-88
2023/01/30 12:59:49;;;;;;;27.23;22.23;;;18.00;45.20;;;;;;6221356;23;20008;-87
2023/01/30 13:02:24;;;;;;;27.85;21.52;;;18.00;46.20;;;;;;6220525;23;20016;-85
2023/01/30 13:05:20;;;;;;;28.45;21.92;;;18.00;46.10;;;;;;6219272;23;20026;-87